createdAt,value
2018-12-01T00:01:57.580Z,7.50
2018-12-01T00:04:28.374Z,7.40
2018-12-01T00:07:17.796Z,7.40
2018-12-01T00:09:48.449Z,7.40
2018-12-01T00:12:19.178Z,7.30
2018-12-01T00:14:50.747Z,7.30
2018-12-01T00:17:21.525Z,7.30
2018-12-01T00:19:52.258Z,7.30
2018-12-01T00:22:23.028Z,7.20
2018-12-01T00:24:53.757Z,7.20
2018-12-01T00:27:31.143Z,7.30
2018-12-01T00:30:01.793Z,7.20
2018-12-01T00:32:32.480Z,7.20
2018-12-01T00:35:04.227Z,7.30
2018-12-01T00:37:34.939Z,7.30
2018-12-01T00:40:07.429Z,7.30
2018-12-01T00:42:38.137Z,7.40
2018-12-01T00:45:11.091Z,7.30
2018-12-01T00:47:41.920Z,7.20
2018-12-01T00:50:15.491Z,7.20
2018-12-01T00:52:46.603Z,7.20
2018-12-01T00:55:18.146Z,7.20
2018-12-01T00:57:49.109Z,7.20
2018-12-01T01:00:21.505Z,7.20
2018-12-01T01:02:56.974Z,7.10
2018-12-01T01:05:29.529Z,7.20
2018-12-01T01:08:01.060Z,7.20
2018-12-01T01:10:34.681Z,7.20
2018-12-01T01:13:05.077Z,7.10
2018-12-01T01:15:35.775Z,7.20
2018-12-01T01:18:06.727Z,7.20
2018-12-01T01:20:37.516Z,7.20
2018-12-01T01:23:08.562Z,7.20
2018-12-01T01:25:39.286Z,7.10
2018-12-01T01:28:10.023Z,7.10
2018-12-01T01:30:40.761Z,7.20
2018-12-01T01:33:21.914Z,7.10
2018-12-01T01:35:52.564Z,7.20
2018-12-01T01:38:23.250Z,7.10
2018-12-01T01:40:58.749Z,7.10
2018-12-01T01:43:29.390Z,7.20
2018-12-01T01:46:00.038Z,7.10
2018-12-01T01:48:30.985Z,7.10
2018-12-01T01:51:01.670Z,7.10
2018-12-01T01:53:32.366Z,7.10
2018-12-01T01:56:03.185Z,7.10
2018-12-01T01:58:33.806Z,7.10
2018-12-01T02:01:04.534Z,7.10
2018-12-01T02:03:35.328Z,7.10
2018-12-01T02:06:06.043Z,7.20
2018-12-01T02:08:36.639Z,7.10
2018-12-01T02:11:07.779Z,7.20
2018-12-01T02:13:38.581Z,7.20
2018-12-01T02:16:09.399Z,7.20
2018-12-01T02:18:40.262Z,7.20
2018-12-01T02:21:11.255Z,7.20
2018-12-01T02:23:41.859Z,7.10
2018-12-01T02:26:12.687Z,7.20
2018-12-01T02:28:43.261Z,7.30
2018-12-01T02:31:13.871Z,7.40
2018-12-01T02:33:45.370Z,7.30
2018-12-01T02:36:16.204Z,7.30
2018-12-01T02:38:47.059Z,7.30
2018-12-01T02:41:17.809Z,7.30
2018-12-01T02:43:57.822Z,7.30
2018-12-01T02:46:39.040Z,7.40
2018-12-01T02:49:09.994Z,7.40
2018-12-01T02:51:40.685Z,7.40
2018-12-01T02:54:11.545Z,7.50
2018-12-01T02:56:42.528Z,7.40
2018-12-01T02:59:13.081Z,7.40
2018-12-01T03:01:43.769Z,7.40
2018-12-01T03:04:14.419Z,7.30
2018-12-01T03:06:45.279Z,7.30
2018-12-01T03:09:16.089Z,7.30
2018-12-01T03:11:46.931Z,7.30
2018-12-01T03:14:17.651Z,7.40
2018-12-01T03:16:48.566Z,7.40
2018-12-01T03:19:19.829Z,7.30
2018-12-01T03:21:50.537Z,7.40
2018-12-01T03:24:21.224Z,7.30
2018-12-01T03:26:52.053Z,7.30
2018-12-01T03:29:22.782Z,7.40
2018-12-01T03:31:53.453Z,7.40
2018-12-01T03:34:24.157Z,7.40
2018-12-01T03:36:54.935Z,7.40
2018-12-01T03:39:25.642Z,7.40
2018-12-01T03:41:56.556Z,7.40
2018-12-01T03:44:27.145Z,7.40
2018-12-01T03:46:58.050Z,7.40
2018-12-01T03:49:28.731Z,7.30
2018-12-01T03:51:59.577Z,7.30
2018-12-01T03:54:30.147Z,7.20
2018-12-01T03:57:00.800Z,7.20
2018-12-01T03:59:31.431Z,7.20
2018-12-01T04:02:02.227Z,7.20
2018-12-01T04:04:32.880Z,7.20
2018-12-01T04:07:03.661Z,7.20
2018-12-01T04:09:34.285Z,7.20
2018-12-01T04:12:04.964Z,7.20
2018-12-01T04:14:35.629Z,7.20
2018-12-01T04:17:06.401Z,7.20
2018-12-01T04:19:37.045Z,7.10
2018-12-01T04:22:08.117Z,7.10
2018-12-01T04:24:39.049Z,7.10
2018-12-01T04:27:10.184Z,7.20
2018-12-01T04:29:40.950Z,7.20
2018-12-01T04:32:12.186Z,7.30
2018-12-01T04:34:42.987Z,7.30
2018-12-01T04:37:13.866Z,7.30
2018-12-01T04:39:44.670Z,7.40
2018-12-01T04:42:15.565Z,7.40
2018-12-01T04:44:46.171Z,7.40
2018-12-01T04:47:16.806Z,7.40
2018-12-01T04:49:47.649Z,7.30
2018-12-01T04:52:18.504Z,7.30
2018-12-01T04:54:49.384Z,7.30
2018-12-01T04:57:20.173Z,7.30
2018-12-01T04:59:50.880Z,7.40
2018-12-01T05:02:21.691Z,7.50
2018-12-01T05:04:52.446Z,7.50
2018-12-01T05:07:23.306Z,7.40
2018-12-01T05:09:54.439Z,7.40
2018-12-01T05:12:25.274Z,7.50
2018-12-01T05:14:56.048Z,7.50
2018-12-01T05:17:26.724Z,7.50
2018-12-01T05:19:57.445Z,7.50
2018-12-01T05:22:28.120Z,7.60
2018-12-01T05:24:59.264Z,7.70
2018-12-01T05:27:30.050Z,7.70
2018-12-01T05:30:00.837Z,7.70
2018-12-01T05:32:31.716Z,7.80
2018-12-01T05:35:02.558Z,7.80
2018-12-01T05:37:33.288Z,7.70
2018-12-01T05:40:04.270Z,7.70
2018-12-01T05:42:35.056Z,7.70
2018-12-01T05:45:07.001Z,7.70
2018-12-01T05:47:37.692Z,7.70
2018-12-01T05:50:09.440Z,7.60
2018-12-01T05:52:40.148Z,7.70
2018-12-01T05:55:13.261Z,7.80
2018-12-01T05:57:44.121Z,7.80
2018-12-01T06:00:16.514Z,7.80
2018-12-01T06:02:47.400Z,7.80
2018-12-01T06:05:18.288Z,7.80
2018-12-01T06:07:49.401Z,7.80
2018-12-01T06:10:22.960Z,7.80
2018-12-01T06:12:54.702Z,7.80
2018-12-01T06:15:25.427Z,7.90
2018-12-01T06:17:56.213Z,7.80
2018-12-01T06:20:30.282Z,7.90
2018-12-01T06:23:01.411Z,8.00
2018-12-01T06:25:31.928Z,8.10
2018-12-01T06:28:02.510Z,8.10
2018-12-01T06:30:33.013Z,8.10
2018-12-01T06:33:03.481Z,8.10
2018-12-01T06:35:34.225Z,8.10
2018-12-01T06:38:04.967Z,8.20
2018-12-01T06:40:35.495Z,8.20
2018-12-01T06:43:06.478Z,8.40
2018-12-01T06:45:36.988Z,8.50
2018-12-01T06:48:07.805Z,8.40
2018-12-01T06:50:38.305Z,8.30
2018-12-01T06:53:09.277Z,8.40
2018-12-01T06:55:39.744Z,8.40
2018-12-01T06:58:10.388Z,8.50
2018-12-01T07:00:40.877Z,8.60
2018-12-01T07:03:14.764Z,8.70
2018-12-01T07:05:46.898Z,8.80
2018-12-01T07:08:18.206Z,9.10
2018-12-01T07:10:48.727Z,9.00
2018-12-01T07:13:19.945Z,9.10
2018-12-01T07:15:50.601Z,9.00
2018-12-01T07:18:31.764Z,9.00
2018-12-01T07:21:02.429Z,8.90
2018-12-01T07:23:34.025Z,9.00
2018-12-01T07:26:04.725Z,9.30
2018-12-01T07:28:36.087Z,9.40
2018-12-01T07:31:06.634Z,9.50
2018-12-01T07:33:37.633Z,9.50
2018-12-01T07:36:08.322Z,9.50
2018-12-01T07:38:39.280Z,9.60
2018-12-01T07:41:10.363Z,9.70
2018-12-01T07:43:40.797Z,9.80
2018-12-01T07:46:11.508Z,9.90
2018-12-01T07:48:43.471Z,9.90
2018-12-01T07:51:14.101Z,9.90
2018-12-01T07:53:47.707Z,10.10
2018-12-01T07:56:18.289Z,10.10
2018-12-01T07:58:49.209Z,10.20
2018-12-01T08:01:19.803Z,10.20
2018-12-01T08:03:50.431Z,10.20
2018-12-01T08:06:21.180Z,10.20
2018-12-01T08:08:52.119Z,10.20
2018-12-01T08:11:25.775Z,10.30
2018-12-01T08:13:56.297Z,10.40
2018-12-01T08:16:26.844Z,10.40
2018-12-01T08:18:57.417Z,10.30
2018-12-01T08:21:27.971Z,10.40
2018-12-01T08:23:58.692Z,10.40
2018-12-01T08:26:29.578Z,10.30
2018-12-01T08:29:00.471Z,10.20
2018-12-01T08:31:31.038Z,10.20
2018-12-01T08:34:01.630Z,10.20
2018-12-01T08:36:32.259Z,10.20
2018-12-01T08:39:02.865Z,10.30
2018-12-01T08:41:33.705Z,10.30
2018-12-01T08:44:13.250Z,10.30
2018-12-01T08:46:44.222Z,10.20
2018-12-01T08:49:15.004Z,10.20
2018-12-01T08:51:45.612Z,10.20
2018-12-01T08:54:16.227Z,10.30
2018-12-01T08:56:47.392Z,10.30
2018-12-01T08:59:17.904Z,10.30
2018-12-01T09:01:48.538Z,10.30
2018-12-01T09:04:19.389Z,10.30
2018-12-01T09:06:49.942Z,10.20
2018-12-01T09:09:20.478Z,10.20
2018-12-01T09:11:51.058Z,10.30
2018-12-01T09:14:21.665Z,10.30
2018-12-01T09:16:52.154Z,10.30
2018-12-01T09:19:22.689Z,10.20
2018-12-01T09:21:53.150Z,10.10
2018-12-01T09:24:23.818Z,10.10
2018-12-01T09:26:54.362Z,10.10
2018-12-01T09:29:25.092Z,10.20
2018-12-01T09:31:55.814Z,10.20
2018-12-01T09:34:26.520Z,10.30
2018-12-01T09:36:57.173Z,10.30
2018-12-01T09:39:27.747Z,10.30
2018-12-01T09:41:58.307Z,10.30
2018-12-01T09:44:29.205Z,10.20
2018-12-01T09:46:59.689Z,10.30
2018-12-01T09:49:30.500Z,10.30
2018-12-01T09:52:01.143Z,10.30
2018-12-01T09:54:31.706Z,10.30
2018-12-01T09:57:02.279Z,10.30
2018-12-01T09:59:33.346Z,10.20
2018-12-01T10:02:03.999Z,10.30
2018-12-01T10:04:34.883Z,10.30
2018-12-01T10:07:05.560Z,10.30
2018-12-01T10:09:36.432Z,10.20
2018-12-01T10:12:07.590Z,10.20
2018-12-01T10:14:38.351Z,10.20
2018-12-01T10:17:08.938Z,10.20
2018-12-01T10:19:42.813Z,10.20
2018-12-01T10:22:13.384Z,10.20
2018-12-01T10:24:44.050Z,10.20
2018-12-01T10:27:14.930Z,10.30
2018-12-01T10:29:45.652Z,10.30
2018-12-01T10:32:16.200Z,10.40
2018-12-01T10:34:46.779Z,10.40
2018-12-01T10:37:19.375Z,10.30
2018-12-01T10:39:49.924Z,10.30
2018-12-01T10:42:20.532Z,10.30
2018-12-01T10:44:51.093Z,10.40
2018-12-01T10:47:21.728Z,10.40
2018-12-01T10:49:53.045Z,10.50
2018-12-01T10:52:23.603Z,10.50
2018-12-01T10:54:54.481Z,10.60
2018-12-01T10:57:37.524Z,10.50
2018-12-01T11:00:18.396Z,10.50
2018-12-01T11:02:55.729Z,10.50
2018-12-01T11:05:25.844Z,10.50
2018-12-01T11:07:56.731Z,10.40
2018-12-01T11:10:27.461Z,10.50
2018-12-01T11:12:58.328Z,10.50
2018-12-01T11:15:29.556Z,10.40
2018-12-01T11:18:00.402Z,10.50
2018-12-01T11:20:31.054Z,10.50
2018-12-01T11:23:01.914Z,10.50
2018-12-01T11:25:33.026Z,10.60
2018-12-01T11:28:03.594Z,10.70
2018-12-01T11:30:34.451Z,10.60
2018-12-01T11:33:05.245Z,10.70
2018-12-01T11:35:36.166Z,10.60
2018-12-01T11:38:07.413Z,10.60
2018-12-01T11:40:38.128Z,10.70
2018-12-01T11:43:09.743Z,10.70
2018-12-01T11:45:40.388Z,10.70
2018-12-01T11:48:11.548Z,10.60
2018-12-01T11:50:42.529Z,10.50
2018-12-01T11:53:13.123Z,10.50
2018-12-01T11:55:43.743Z,10.60
2018-12-01T11:58:14.496Z,10.50
2018-12-01T12:00:45.319Z,10.50
2018-12-01T12:03:16.177Z,10.60
2018-12-01T12:05:46.987Z,10.60
2018-12-01T12:08:20.314Z,10.60
2018-12-01T12:10:50.942Z,10.60
2018-12-01T12:13:22.437Z,10.60
2018-12-01T12:15:53.774Z,10.60
2018-12-01T12:18:24.403Z,10.60
2018-12-01T12:20:55.068Z,10.60
2018-12-01T12:23:25.672Z,10.60
2018-12-01T12:25:56.495Z,10.70
2018-12-01T12:28:27.231Z,10.60
2018-12-01T12:30:58.350Z,10.60
2018-12-01T12:33:29.805Z,10.60
2018-12-01T12:36:00.702Z,10.60
2018-12-01T12:38:32.468Z,10.60
2018-12-01T12:41:04.363Z,10.60
2018-12-01T12:43:35.128Z,10.70
2018-12-01T12:46:06.069Z,10.60
2018-12-01T12:48:36.874Z,10.70
2018-12-01T12:51:07.441Z,10.70
2018-12-01T12:53:38.243Z,10.60
2018-12-01T12:56:09.284Z,10.60
2018-12-01T12:58:40.036Z,10.60
2018-12-01T13:01:10.768Z,10.50
2018-12-01T13:03:41.443Z,10.50
2018-12-01T13:06:12.131Z,10.50
2018-12-01T13:08:42.621Z,10.50
2018-12-01T13:11:13.139Z,10.50
2018-12-01T13:13:44.035Z,10.40
2018-12-01T13:16:14.500Z,10.50
2018-12-01T13:18:45.128Z,10.50
2018-12-01T13:21:15.828Z,10.50
2018-12-01T13:23:46.879Z,10.40
2018-12-01T13:26:17.530Z,10.30
2018-12-01T13:28:48.356Z,10.30
2018-12-01T13:31:18.880Z,10.20
2018-12-01T13:33:49.543Z,10.10
2018-12-01T13:36:20.350Z,10.10
2018-12-01T13:38:50.863Z,10.10
2018-12-01T13:41:21.567Z,10.10
2018-12-01T13:43:52.278Z,10.10
2018-12-01T13:46:23.110Z,10.10
2018-12-01T13:48:54.043Z,10.00
2018-12-01T13:51:25.104Z,9.90
2018-12-01T13:53:55.806Z,9.90
2018-12-01T13:56:26.453Z,9.90
2018-12-01T13:58:57.037Z,9.90
2018-12-01T14:01:27.564Z,9.80
2018-12-01T14:03:58.072Z,9.90
2018-12-01T14:06:28.626Z,9.90
2018-12-01T14:08:59.453Z,9.90
2018-12-01T14:11:30.314Z,9.90
2018-12-01T14:14:00.927Z,9.80
2018-12-01T14:16:31.413Z,9.80
2018-12-01T14:19:02.008Z,9.70
2018-12-01T14:21:32.520Z,9.80
2018-12-01T14:24:03.372Z,9.80
2018-12-01T14:26:34.133Z,9.80
2018-12-01T14:29:04.890Z,9.70
2018-12-01T14:31:35.462Z,9.70
2018-12-01T14:34:06.460Z,9.80
2018-12-01T14:36:37.150Z,9.80
2018-12-01T14:39:09.327Z,9.70
2018-12-01T14:41:40.076Z,9.70
2018-12-01T14:44:10.671Z,9.60
2018-12-01T14:46:41.209Z,9.60
2018-12-01T14:49:11.797Z,9.60
2018-12-01T14:51:42.530Z,9.50
2018-12-01T14:54:13.407Z,9.50
2018-12-01T14:56:43.913Z,9.50
2018-12-01T14:59:14.511Z,9.40
2018-12-01T15:01:45.217Z,9.30
2018-12-01T15:04:15.963Z,9.20
2018-12-01T15:06:46.527Z,9.10
2018-12-01T15:09:17.115Z,9.20
2018-12-01T15:11:49.697Z,9.10
2018-12-01T15:14:26.010Z,9.20
2018-12-01T15:16:57.327Z,9.10
2018-12-01T15:19:27.899Z,9.10
2018-12-01T15:21:58.861Z,9.00
2018-12-01T15:24:29.585Z,9.10
2018-12-01T15:27:00.558Z,9.00
2018-12-01T15:29:31.226Z,9.00
2018-12-01T15:32:02.004Z,9.00
2018-12-01T15:34:32.547Z,9.00
2018-12-01T15:37:03.236Z,9.00
2018-12-01T15:39:34.120Z,9.00
2018-12-01T15:42:05.122Z,9.00
2018-12-01T15:44:35.929Z,8.90
2018-12-01T15:47:06.636Z,9.00
2018-12-01T15:49:43.374Z,9.00
2018-12-01T15:52:17.514Z,8.90
2018-12-01T15:54:48.209Z,9.00
2018-12-01T15:57:18.768Z,9.00
2018-12-01T15:59:49.728Z,9.10
2018-12-01T16:02:20.417Z,9.10
2018-12-01T16:04:51.376Z,9.10
2018-12-01T16:07:23.057Z,9.10
2018-12-01T16:09:53.783Z,9.10
2018-12-01T16:12:24.471Z,9.10
2018-12-01T16:14:55.171Z,9.10
2018-12-01T16:17:25.982Z,9.20
2018-12-01T16:19:56.644Z,9.20
2018-12-01T16:22:27.169Z,9.30
2018-12-01T16:24:57.999Z,9.40
2018-12-01T16:27:28.569Z,9.40
2018-12-01T16:29:59.181Z,9.40
2018-12-01T16:32:29.858Z,9.40
2018-12-01T16:35:00.654Z,9.40
2018-12-01T16:37:31.733Z,9.30
2018-12-01T16:40:02.776Z,9.30
2018-12-01T16:42:33.723Z,9.20
2018-12-01T16:45:04.408Z,9.10
2018-12-01T16:47:35.133Z,9.10
2018-12-01T16:50:07.784Z,9.10
2018-12-01T16:52:38.946Z,9.00
2018-12-01T16:55:12.283Z,9.00
2018-12-01T16:57:42.932Z,9.10
2018-12-01T17:00:17.371Z,9.20
2018-12-01T17:02:49.346Z,9.20
2018-12-01T17:05:20.899Z,9.10
2018-12-01T17:07:51.653Z,9.10
2018-12-01T17:10:23.048Z,9.10
2018-12-01T17:12:55.012Z,9.00
2018-12-01T17:15:25.620Z,8.90
2018-12-01T17:17:56.924Z,8.90
2018-12-01T17:20:27.655Z,8.80
2018-12-01T17:22:59.647Z,8.80
2018-12-01T17:25:30.395Z,8.80
2018-12-01T17:28:01.296Z,8.70
2018-12-01T17:30:31.881Z,8.70
2018-12-01T17:33:05.248Z,8.70
2018-12-01T17:35:38.114Z,8.70
2018-12-01T17:38:11.702Z,8.60
2018-12-01T17:40:53.142Z,8.70
2018-12-01T17:43:35.288Z,8.70
2018-12-01T17:46:06.255Z,8.70
2018-12-01T17:48:37.338Z,8.70
2018-12-01T17:51:10.233Z,8.60
2018-12-01T17:53:46.157Z,8.70
2018-12-01T17:56:19.591Z,8.70
2018-12-01T17:58:54.026Z,8.60
2018-12-01T18:01:28.187Z,8.60
2018-12-01T18:06:31.961Z,8.50
2018-12-01T18:09:07.340Z,8.50
2018-12-01T18:11:42.547Z,8.50
2018-12-01T18:14:16.547Z,8.50
2018-12-01T18:16:50.223Z,8.50
2018-12-01T18:19:23.377Z,8.50
2018-12-01T18:21:57.110Z,8.50
2018-12-01T18:27:00.091Z,8.50
2018-12-01T18:29:34.462Z,8.40
2018-12-01T18:32:08.947Z,8.50
2018-12-01T18:34:45.098Z,8.40
2018-12-01T18:37:19.558Z,8.50
2018-12-01T18:39:54.051Z,8.50
2018-12-01T18:42:31.163Z,8.50
2018-12-01T18:45:05.637Z,8.40
2018-12-01T18:47:39.878Z,8.40
2018-12-01T18:50:20.400Z,8.50
2018-12-01T18:55:23.963Z,8.50
2018-12-01T18:57:58.558Z,8.50
2018-12-01T19:00:41.248Z,8.50
2018-12-01T19:03:17.067Z,8.50
2018-12-01T19:05:51.642Z,8.50
2018-12-01T19:08:26.526Z,8.60
2018-12-01T19:11:01.912Z,8.50
2018-12-01T19:13:38.013Z,8.60
2018-12-01T19:16:14.421Z,8.50
2018-12-01T19:18:49.050Z,8.50
2018-12-01T19:21:24.245Z,8.50
2018-12-01T19:23:59.234Z,8.50
2018-12-01T19:26:34.657Z,8.50
2018-12-01T19:29:09.965Z,8.50
2018-12-01T19:31:44.320Z,8.50
2018-12-01T19:34:19.624Z,8.50
2018-12-01T19:36:55.214Z,8.50
2018-12-01T19:39:29.002Z,8.50
2018-12-01T19:42:03.391Z,8.50
2018-12-01T19:44:38.973Z,8.50
2018-12-01T19:47:14.402Z,8.50
2018-12-01T19:49:49.238Z,8.50
2018-12-01T19:52:25.628Z,8.50
2018-12-01T19:55:02.050Z,8.50
2018-12-01T19:57:37.561Z,8.50
2018-12-01T20:00:17.000Z,8.50
2018-12-01T20:02:53.510Z,8.50
2018-12-01T20:05:28.953Z,8.50
2018-12-01T20:08:03.448Z,8.50
2018-12-01T20:10:40.637Z,8.50
2018-12-01T20:13:22.097Z,8.50
2018-12-01T20:15:58.626Z,8.50
2018-12-01T20:18:34.421Z,8.50
2018-12-01T20:21:09.808Z,8.50
2018-12-01T20:23:45.553Z,8.40
2018-12-01T20:26:20.357Z,8.40
2018-12-01T20:28:54.761Z,8.50
2018-12-01T20:31:29.234Z,8.50
2018-12-01T20:34:04.698Z,8.50
2018-12-01T20:36:47.824Z,8.50
2018-12-01T20:39:25.146Z,8.40
2018-12-01T20:41:59.127Z,8.40
2018-12-01T20:44:33.179Z,8.50
2018-12-01T20:47:07.457Z,8.40
2018-12-01T20:49:38.767Z,8.40
2018-12-01T20:52:11.095Z,8.40
2018-12-01T20:54:46.257Z,8.40
2018-12-01T20:57:22.100Z,8.40
2018-12-01T20:59:54.074Z,8.50
2018-12-01T21:02:25.028Z,8.40
2018-12-01T21:04:56.508Z,8.40
2018-12-01T21:07:28.528Z,8.40
2018-12-01T21:10:00.907Z,8.40
2018-12-01T21:12:32.772Z,8.40
2018-12-01T21:15:04.204Z,8.40
2018-12-01T21:17:35.674Z,8.30
2018-12-01T21:20:13.140Z,8.40
2018-12-01T21:22:48.225Z,8.30
2018-12-01T21:25:22.176Z,8.40
2018-12-01T21:27:55.241Z,8.40
2018-12-01T21:30:29.492Z,8.30
2018-12-01T21:33:02.834Z,8.30
2018-12-01T21:35:35.465Z,8.30
2018-12-01T21:38:11.882Z,8.30
2018-12-01T21:40:44.686Z,8.30
2018-12-01T21:43:17.166Z,8.30
2018-12-01T21:45:52.352Z,8.30
2018-12-01T21:48:23.122Z,8.30
2018-12-01T21:50:53.700Z,8.30
2018-12-01T21:53:27.069Z,8.30
2018-12-01T21:55:57.576Z,8.30
2018-12-01T21:58:28.345Z,8.30
2018-12-01T22:01:01.057Z,8.30
2018-12-01T22:03:32.861Z,8.40
2018-12-01T22:06:04.844Z,8.40
2018-12-01T22:08:36.224Z,8.50
2018-12-01T22:11:07.561Z,8.40
2018-12-01T22:13:38.214Z,8.30
2018-12-01T22:16:09.946Z,8.30
2018-12-01T22:18:40.587Z,8.30
2018-12-01T22:21:11.400Z,8.30
2018-12-01T22:23:42.157Z,8.30
2018-12-01T22:26:12.705Z,8.30
2018-12-01T22:28:43.321Z,8.30
2018-12-01T22:31:13.897Z,8.30
2018-12-01T22:33:44.402Z,8.30
2018-12-01T22:36:14.992Z,8.30
2018-12-01T22:38:45.587Z,8.30
2018-12-01T22:41:15.996Z,8.20
2018-12-01T22:43:47.111Z,8.20
2018-12-01T22:46:17.618Z,8.20
2018-12-01T22:48:48.467Z,8.20
2018-12-01T22:51:19.273Z,8.20
2018-12-01T22:53:50.204Z,8.20
2018-12-01T22:56:20.825Z,8.20
2018-12-01T22:58:51.751Z,8.20
2018-12-01T23:01:22.586Z,8.20
2018-12-01T23:03:53.284Z,8.20
2018-12-01T23:06:23.773Z,8.10
2018-12-01T23:08:54.631Z,8.20
2018-12-01T23:11:25.183Z,8.20
2018-12-01T23:13:55.845Z,8.20
2018-12-01T23:16:26.532Z,8.20
2018-12-01T23:18:57.070Z,8.20
2018-12-01T23:21:28.099Z,8.20
2018-12-01T23:23:58.703Z,8.30
2018-12-01T23:26:29.379Z,8.30
2018-12-01T23:28:59.930Z,8.40
2018-12-01T23:31:30.623Z,8.40
2018-12-01T23:34:01.375Z,8.40
2018-12-01T23:36:32.044Z,8.40
2018-12-01T23:39:02.697Z,8.40
2018-12-01T23:41:33.584Z,8.40
2018-12-01T23:44:04.203Z,8.40
2018-12-01T23:46:34.825Z,8.50
2018-12-01T23:49:05.513Z,8.50
2018-12-01T23:51:36.143Z,8.50
2018-12-01T23:54:06.874Z,8.50
2018-12-01T23:56:37.349Z,8.50
2018-12-01T23:59:08.035Z,8.50
